sensor_id;sensor_type;location;lat;lon;timestamp;temperature;humidity
4578;DHT22;2301;47.354;8.528;2022-10-19T00:01:16;19.00;88.60
4578;DHT22;2301;47.354;8.528;2022-10-19T00:03:44;19.00;88.40
4578;DHT22;2301;47.354;8.528;2022-10-19T00:06:16;19.00;88.40
4578;DHT22;2301;47.354;8.528;2022-10-19T00:08:44;18.90;88.30
4578;DHT22;2301;47.354;8.528;2022-10-19T00:11:11;18.90;88.20
4578;DHT22;2301;47.354;8.528;2022-10-19T00:13:38;18.90;88.70
4578;DHT22;2301;47.354;8.528;2022-10-19T00:16:10;18.90;88.80
4578;DHT22;2301;47.354;8.528;2022-10-19T00:18:37;18.90;88.60
4578;DHT22;2301;47.354;8.528;2022-10-19T00:21:06;18.90;88.70
4578;DHT22;2301;47.354;8.528;2022-10-19T00:23:35;18.90;88.80
4578;DHT22;2301;47.354;8.528;2022-10-19T00:26:02;18.80;88.60
4578;DHT22;2301;47.354;8.528;2022-10-19T00:28:30;18.90;88.60
4578;DHT22;2301;47.354;8.528;2022-10-19T00:31:01;18.80;88.40
4578;DHT22;2301;47.354;8.528;2022-10-19T00:33:29;18.80;88.40
4578;DHT22;2301;47.354;8.528;2022-10-19T00:35:55;18.80;88.30
4578;DHT22;2301;47.354;8.528;2022-10-19T00:38:22;18.80;88.30
4578;DHT22;2301;47.354;8.528;2022-10-19T00:40:51;18.80;88.20
4578;DHT22;2301;47.354;8.528;2022-10-19T00:43:20;18.80;88.30
4578;DHT22;2301;47.354;8.528;2022-10-19T00:45:47;18.80;88.60
4578;DHT22;2301;47.354;8.528;2022-10-19T00:48:17;18.80;88.60
4578;DHT22;2301;47.354;8.528;2022-10-19T00:50:46;18.80;88.40
4578;DHT22;2301;47.354;8.528;2022-10-19T00:53:14;18.80;88.50
4578;DHT22;2301;47.354;8.528;2022-10-19T00:55:41;18.70;88.40
4578;DHT22;2301;47.354;8.528;2022-10-19T00:58:10;18.70;88.40
4578;DHT22;2301;47.354;8.528;2022-10-19T01:00:38;18.80;88.50
4578;DHT22;2301;47.354;8.528;2022-10-19T01:03:05;18.70;88.10
4578;DHT22;2301;47.354;8.528;2022-10-19T01:05:33;18.70;88.00
4578;DHT22;2301;47.354;8.528;2022-10-19T01:08:00;18.70;88.00
4578;DHT22;2301;47.354;8.528;2022-10-19T01:10:39;18.70;88.00
4578;DHT22;2301;47.354;8.528;2022-10-19T01:13:22;18.70;87.80
4578;DHT22;2301;47.354;8.528;2022-10-19T01:15:58;18.60;88.00
4578;DHT22;2301;47.354;8.528;2022-10-19T01:18:32;18.60;88.10
4578;DHT22;2301;47.354;8.528;2022-10-19T01:21:17;18.60;88.40
4578;DHT22;2301;47.354;8.528;2022-10-19T01:24:16;18.60;88.50
4578;DHT22;2301;47.354;8.528;2022-10-19T01:27:16;18.60;88.60
4578;DHT22;2301;47.354;8.528;2022-10-19T01:30:12;18.60;88.70
4578;DHT22;2301;47.354;8.528;2022-10-19T01:33:10;18.60;89.90
4578;DHT22;2301;47.354;8.528;2022-10-19T01:35:44;18.60;89.30
4578;DHT22;2301;47.354;8.528;2022-10-19T01:38:22;18.70;89.00
4578;DHT22;2301;47.354;8.528;2022-10-19T01:40:55;18.70;88.70
4578;DHT22;2301;47.354;8.528;2022-10-19T01:43:32;18.70;88.40
4578;DHT22;2301;47.354;8.528;2022-10-19T01:46:07;18.70;88.30
4578;DHT22;2301;47.354;8.528;2022-10-19T01:48:36;18.70;88.10
4578;DHT22;2301;47.354;8.528;2022-10-19T01:51:06;18.70;88.10
4578;DHT22;2301;47.354;8.528;2022-10-19T01:53:38;18.70;88.30
4578;DHT22;2301;47.354;8.528;2022-10-19T01:56:07;18.70;88.30
4578;DHT22;2301;47.354;8.528;2022-10-19T01:58:36;18.60;88.10
4578;DHT22;2301;47.354;8.528;2022-10-19T02:01:08;18.60;88.00
4578;DHT22;2301;47.354;8.528;2022-10-19T02:03:37;18.60;88.00
4578;DHT22;2301;47.354;8.528;2022-10-19T02:06:06;18.60;88.00
4578;DHT22;2301;47.354;8.528;2022-10-19T02:08:38;18.60;88.00
4578;DHT22;2301;47.354;8.528;2022-10-19T02:11:06;18.60;87.80
4578;DHT22;2301;47.354;8.528;2022-10-19T02:13:33;18.60;87.70
4578;DHT22;2301;47.354;8.528;2022-10-19T02:16:08;18.60;87.80
4578;DHT22;2301;47.354;8.528;2022-10-19T02:18:39;18.60;87.90
4578;DHT22;2301;47.354;8.528;2022-10-19T02:21:08;18.50;87.80
4578;DHT22;2301;47.354;8.528;2022-10-19T02:23:35;18.60;88.00
4578;DHT22;2301;47.354;8.528;2022-10-19T02:26:03;18.60;88.00
4578;DHT22;2301;47.354;8.528;2022-10-19T02:28:30;18.60;87.90
4578;DHT22;2301;47.354;8.528;2022-10-19T02:30:58;18.50;87.80
4578;DHT22;2301;47.354;8.528;2022-10-19T02:33:28;18.50;87.80
4578;DHT22;2301;47.354;8.528;2022-10-19T02:35:55;18.50;87.80
4578;DHT22;2301;47.354;8.528;2022-10-19T02:38:23;18.50;87.80
4578;DHT22;2301;47.354;8.528;2022-10-19T02:40:55;18.50;87.80
4578;DHT22;2301;47.354;8.528;2022-10-19T02:43:25;18.50;87.80
4578;DHT22;2301;47.354;8.528;2022-10-19T02:45:58;18.50;87.70
4578;DHT22;2301;47.354;8.528;2022-10-19T02:48:30;18.50;87.70
4578;DHT22;2301;47.354;8.528;2022-10-19T02:50:58;18.40;87.20
4578;DHT22;2301;47.354;8.528;2022-10-19T02:53:25;18.40;87.30
4578;DHT22;2301;47.354;8.528;2022-10-19T02:55:52;18.40;87.50
4578;DHT22;2301;47.354;8.528;2022-10-19T02:58:19;18.40;87.40
4578;DHT22;2301;47.354;8.528;2022-10-19T03:00:46;18.30;87.30
4578;DHT22;2301;47.354;8.528;2022-10-19T03:03:13;18.30;87.20
4578;DHT22;2301;47.354;8.528;2022-10-19T03:05:41;18.30;87.60
4578;DHT22;2301;47.354;8.528;2022-10-19T03:08:08;18.30;87.40
4578;DHT22;2301;47.354;8.528;2022-10-19T03:10:35;18.30;87.30
4578;DHT22;2301;47.354;8.528;2022-10-19T03:13:02;18.20;87.30
4578;DHT22;2301;47.354;8.528;2022-10-19T03:15:29;18.20;87.50
4578;DHT22;2301;47.354;8.528;2022-10-19T03:17:55;18.20;87.70
4578;DHT22;2301;47.354;8.528;2022-10-19T03:20:23;18.20;87.70
4578;DHT22;2301;47.354;8.528;2022-10-19T03:22:51;18.20;87.40
4578;DHT22;2301;47.354;8.528;2022-10-19T03:25:18;18.20;87.60
4578;DHT22;2301;47.354;8.528;2022-10-19T03:27:45;18.20;87.60
4578;DHT22;2301;47.354;8.528;2022-10-19T03:30:12;18.20;87.40
4578;DHT22;2301;47.354;8.528;2022-10-19T03:32:39;18.20;87.40
4578;DHT22;2301;47.354;8.528;2022-10-19T03:35:06;18.20;87.30
4578;DHT22;2301;47.354;8.528;2022-10-19T03:37:34;18.20;87.30
4578;DHT22;2301;47.354;8.528;2022-10-19T03:40:02;18.20;87.10
4578;DHT22;2301;47.354;8.528;2022-10-19T03:42:29;18.20;87.10
4578;DHT22;2301;47.354;8.528;2022-10-19T03:44:56;18.20;87.30
4578;DHT22;2301;47.354;8.528;2022-10-19T03:47:23;18.20;87.10
4578;DHT22;2301;47.354;8.528;2022-10-19T03:49:50;18.20;87.30
4578;DHT22;2301;47.354;8.528;2022-10-19T03:52:18;18.20;87.10
4578;DHT22;2301;47.354;8.528;2022-10-19T03:54:48;18.20;87.10
4578;DHT22;2301;47.354;8.528;2022-10-19T03:57:16;18.10;87.20
4578;DHT22;2301;47.354;8.528;2022-10-19T03:59:43;18.10;87.20
4578;DHT22;2301;47.354;8.528;2022-10-19T04:02:10;18.10;86.90
4578;DHT22;2301;47.354;8.528;2022-10-19T04:04:37;18.10;86.90
4578;DHT22;2301;47.354;8.528;2022-10-19T04:07:04;18.00;86.70
4578;DHT22;2301;47.354;8.528;2022-10-19T04:09:31;18.00;86.90
4578;DHT22;2301;47.354;8.528;2022-10-19T04:11:57;18.00;86.90
4578;DHT22;2301;47.354;8.528;2022-10-19T04:14:26;18.00;86.70
4578;DHT22;2301;47.354;8.528;2022-10-19T04:16:53;18.00;86.70
4578;DHT22;2301;47.354;8.528;2022-10-19T04:19:19;17.90;87.00
4578;DHT22;2301;47.354;8.528;2022-10-19T04:21:47;17.90;87.40
4578;DHT22;2301;47.354;8.528;2022-10-19T04:24:16;17.90;87.40
4578;DHT22;2301;47.354;8.528;2022-10-19T04:26:45;17.90;87.40
4578;DHT22;2301;47.354;8.528;2022-10-19T04:29:14;17.90;87.30
4578;DHT22;2301;47.354;8.528;2022-10-19T04:31:42;17.90;87.50
4578;DHT22;2301;47.354;8.528;2022-10-19T04:34:09;17.90;87.70
4578;DHT22;2301;47.354;8.528;2022-10-19T04:36:37;17.90;87.90
4578;DHT22;2301;47.354;8.528;2022-10-19T04:39:05;17.90;88.90
4578;DHT22;2301;47.354;8.528;2022-10-19T04:41:32;17.90;88.40
4578;DHT22;2301;47.354;8.528;2022-10-19T04:44:01;17.90;88.60
4578;DHT22;2301;47.354;8.528;2022-10-19T04:46:29;18.00;88.60
4578;DHT22;2301;47.354;8.528;2022-10-19T04:48:58;18.00;88.60
4578;DHT22;2301;47.354;8.528;2022-10-19T04:51:26;18.00;88.30
4578;DHT22;2301;47.354;8.528;2022-10-19T04:53:53;18.00;88.50
4578;DHT22;2301;47.354;8.528;2022-10-19T04:56:23;18.00;88.40
4578;DHT22;2301;47.354;8.528;2022-10-19T04:58:53;18.00;89.10
4578;DHT22;2301;47.354;8.528;2022-10-19T05:01:21;18.00;88.50
4578;DHT22;2301;47.354;8.528;2022-10-19T05:03:52;18.00;88.50
4578;DHT22;2301;47.354;8.528;2022-10-19T05:06:20;18.00;88.20
4578;DHT22;2301;47.354;8.528;2022-10-19T05:08:47;18.10;88.30
4578;DHT22;2301;47.354;8.528;2022-10-19T05:11:16;18.10;87.90
4578;DHT22;2301;47.354;8.528;2022-10-19T05:13:43;18.10;87.40
4578;DHT22;2301;47.354;8.528;2022-10-19T05:16:13;18.00;87.60
4578;DHT22;2301;47.354;8.528;2022-10-19T05:18:40;18.00;87.50
4578;DHT22;2301;47.354;8.528;2022-10-19T05:21:09;18.00;87.60
4578;DHT22;2301;47.354;8.528;2022-10-19T05:23:38;18.00;87.60
4578;DHT22;2301;47.354;8.528;2022-10-19T05:26:08;18.00;87.70
4578;DHT22;2301;47.354;8.528;2022-10-19T05:28:36;18.00;87.50
4578;DHT22;2301;47.354;8.528;2022-10-19T05:31:07;18.00;87.80
4578;DHT22;2301;47.354;8.528;2022-10-19T05:33:35;18.00;87.90
4578;DHT22;2301;47.354;8.528;2022-10-19T05:36:13;18.00;88.10
4578;DHT22;2301;47.354;8.528;2022-10-19T05:38:42;18.10;88.20
4578;DHT22;2301;47.354;8.528;2022-10-19T05:41:09;18.10;88.40
4578;DHT22;2301;47.354;8.528;2022-10-19T05:43:36;18.10;88.30
4578;DHT22;2301;47.354;8.528;2022-10-19T05:46:05;18.10;88.20
4578;DHT22;2301;47.354;8.528;2022-10-19T05:48:32;18.20;88.30
4578;DHT22;2301;47.354;8.528;2022-10-19T05:51:00;18.20;88.30
4578;DHT22;2301;47.354;8.528;2022-10-19T05:53:28;18.20;88.30
4578;DHT22;2301;47.354;8.528;2022-10-19T05:55:56;18.30;88.10
4578;DHT22;2301;47.354;8.528;2022-10-19T05:58:24;18.30;87.90
4578;DHT22;2301;47.354;8.528;2022-10-19T06:00:52;18.30;88.10
4578;DHT22;2301;47.354;8.528;2022-10-19T06:03:19;18.30;88.30
4578;DHT22;2301;47.354;8.528;2022-10-19T06:05:46;18.30;88.30
4578;DHT22;2301;47.354;8.528;2022-10-19T06:08:14;18.40;88.40
4578;DHT22;2301;47.354;8.528;2022-10-19T06:10:41;18.30;88.20
4578;DHT22;2301;47.354;8.528;2022-10-19T06:13:09;18.40;88.20
4578;DHT22;2301;47.354;8.528;2022-10-19T06:15:37;18.40;88.50
4578;DHT22;2301;47.354;8.528;2022-10-19T06:18:05;18.40;88.50
4578;DHT22;2301;47.354;8.528;2022-10-19T06:20:33;18.40;88.50
4578;DHT22;2301;47.354;8.528;2022-10-19T06:23:00;18.50;88.60
4578;DHT22;2301;47.354;8.528;2022-10-19T06:25:28;18.50;88.50
4578;DHT22;2301;47.354;8.528;2022-10-19T06:27:55;18.50;88.30
4578;DHT22;2301;47.354;8.528;2022-10-19T06:30:23;18.50;88.30
4578;DHT22;2301;47.354;8.528;2022-10-19T06:32:50;18.60;88.30
4578;DHT22;2301;47.354;8.528;2022-10-19T06:35:17;18.60;88.20
4578;DHT22;2301;47.354;8.528;2022-10-19T06:37:44;18.60;88.30
4578;DHT22;2301;47.354;8.528;2022-10-19T06:40:11;18.60;88.20
4578;DHT22;2301;47.354;8.528;2022-10-19T06:42:38;18.60;88.10
4578;DHT22;2301;47.354;8.528;2022-10-19T06:45:06;18.60;88.10
4578;DHT22;2301;47.354;8.528;2022-10-19T06:47:35;18.70;88.10
4578;DHT22;2301;47.354;8.528;2022-10-19T06:50:03;18.60;87.90
4578;DHT22;2301;47.354;8.528;2022-10-19T06:52:30;18.60;88.00
4578;DHT22;2301;47.354;8.528;2022-10-19T06:54:57;18.60;88.10
4578;DHT22;2301;47.354;8.528;2022-10-19T06:57:24;18.60;88.00
4578;DHT22;2301;47.354;8.528;2022-10-19T06:59:51;18.70;88.00
4578;DHT22;2301;47.354;8.528;2022-10-19T07:02:18;18.70;87.80
4578;DHT22;2301;47.354;8.528;2022-10-19T07:04:46;18.70;87.70
4578;DHT22;2301;47.354;8.528;2022-10-19T07:07:13;18.80;87.60
4578;DHT22;2301;47.354;8.528;2022-10-19T07:09:40;18.80;87.50
4578;DHT22;2301;47.354;8.528;2022-10-19T07:12:07;18.80;87.60
4578;DHT22;2301;47.354;8.528;2022-10-19T07:14:35;18.80;87.50
4578;DHT22;2301;47.354;8.528;2022-10-19T07:17:04;18.80;87.50
4578;DHT22;2301;47.354;8.528;2022-10-19T07:19:31;18.80;87.60
4578;DHT22;2301;47.354;8.528;2022-10-19T07:21:59;18.80;87.70
4578;DHT22;2301;47.354;8.528;2022-10-19T07:24:26;18.90;87.70
4578;DHT22;2301;47.354;8.528;2022-10-19T07:26:53;18.90;87.50
4578;DHT22;2301;47.354;8.528;2022-10-19T07:29:20;18.90;87.30
4578;DHT22;2301;47.354;8.528;2022-10-19T07:31:47;18.90;87.10
4578;DHT22;2301;47.354;8.528;2022-10-19T07:34:14;19.00;86.60
4578;DHT22;2301;47.354;8.528;2022-10-19T07:36:43;18.90;85.70
4578;DHT22;2301;47.354;8.528;2022-10-19T07:39:14;18.80;85.60
4578;DHT22;2301;47.354;8.528;2022-10-19T07:41:42;18.60;85.70
4578;DHT22;2301;47.354;8.528;2022-10-19T07:44:10;18.50;86.20
4578;DHT22;2301;47.354;8.528;2022-10-19T07:46:37;18.40;86.60
4578;DHT22;2301;47.354;8.528;2022-10-19T07:49:06;18.40;86.90
4578;DHT22;2301;47.354;8.528;2022-10-19T07:51:34;18.30;87.30
4578;DHT22;2301;47.354;8.528;2022-10-19T07:54:02;18.20;87.60
4578;DHT22;2301;47.354;8.528;2022-10-19T07:56:31;18.10;87.60
4578;DHT22;2301;47.354;8.528;2022-10-19T07:58:59;18.00;87.80
4578;DHT22;2301;47.354;8.528;2022-10-19T08:01:28;17.90;88.10
4578;DHT22;2301;47.354;8.528;2022-10-19T08:03:57;17.90;88.70
4578;DHT22;2301;47.354;8.528;2022-10-19T08:06:25;17.90;89.00
4578;DHT22;2301;47.354;8.528;2022-10-19T08:08:53;17.80;89.20
4578;DHT22;2301;47.354;8.528;2022-10-19T08:11:22;17.80;89.40
4578;DHT22;2301;47.354;8.528;2022-10-19T08:13:50;17.70;89.20
4578;DHT22;2301;47.354;8.528;2022-10-19T08:16:23;17.70;89.30
4578;DHT22;2301;47.354;8.528;2022-10-19T08:18:50;17.70;89.90
4578;DHT22;2301;47.354;8.528;2022-10-19T08:21:17;17.60;90.00
4578;DHT22;2301;47.354;8.528;2022-10-19T08:23:44;17.60;90.00
4578;DHT22;2301;47.354;8.528;2022-10-19T08:26:11;17.60;90.10
4578;DHT22;2301;47.354;8.528;2022-10-19T08:28:38;17.60;90.20
4578;DHT22;2301;47.354;8.528;2022-10-19T08:31:11;17.60;90.20
4578;DHT22;2301;47.354;8.528;2022-10-19T08:33:38;17.60;90.30
4578;DHT22;2301;47.354;8.528;2022-10-19T08:36:06;17.60;90.40
4578;DHT22;2301;47.354;8.528;2022-10-19T08:38:35;17.60;90.20
4578;DHT22;2301;47.354;8.528;2022-10-19T08:41:22;17.60;90.20
4578;DHT22;2301;47.354;8.528;2022-10-19T08:46:50;17.70;90.20
4578;DHT22;2301;47.354;8.528;2022-10-19T08:49:23;17.70;90.20
4578;DHT22;2301;47.354;8.528;2022-10-19T08:51:56;17.70;90.20
4578;DHT22;2301;47.354;8.528;2022-10-19T08:54:25;17.70;90.10
4578;DHT22;2301;47.354;8.528;2022-10-19T08:57:02;17.70;90.10
4578;DHT22;2301;47.354;8.528;2022-10-19T08:59:35;17.70;90.10
4578;DHT22;2301;47.354;8.528;2022-10-19T09:02:11;17.70;90.30
4578;DHT22;2301;47.354;8.528;2022-10-19T09:04:40;17.70;90.40
4578;DHT22;2301;47.354;8.528;2022-10-19T09:07:22;17.70;90.30
4578;DHT22;2301;47.354;8.528;2022-10-19T09:09:54;17.70;90.30
4578;DHT22;2301;47.354;8.528;2022-10-19T09:12:34;17.70;90.40
4578;DHT22;2301;47.354;8.528;2022-10-19T09:15:05;17.70;90.50
4578;DHT22;2301;47.354;8.528;2022-10-19T09:17:34;17.70;90.40
4578;DHT22;2301;47.354;8.528;2022-10-19T09:20:13;17.70;90.50
4578;DHT22;2301;47.354;8.528;2022-10-19T09:22:41;17.80;90.50
4578;DHT22;2301;47.354;8.528;2022-10-19T09:25:13;17.70;90.50
4578;DHT22;2301;47.354;8.528;2022-10-19T09:27:47;17.80;90.50
4578;DHT22;2301;47.354;8.528;2022-10-19T09:30:17;17.70;90.50
4578;DHT22;2301;47.354;8.528;2022-10-19T09:32:47;17.80;90.50
4578;DHT22;2301;47.354;8.528;2022-10-19T09:35:25;17.80;90.60
4578;DHT22;2301;47.354;8.528;2022-10-19T09:37:54;17.80;90.60
4578;DHT22;2301;47.354;8.528;2022-10-19T09:40:23;17.80;90.60
4578;DHT22;2301;47.354;8.528;2022-10-19T09:42:51;17.80;90.60
4578;DHT22;2301;47.354;8.528;2022-10-19T09:45:31;17.80;90.50
4578;DHT22;2301;47.354;8.528;2022-10-19T09:48:03;17.80;90.50
4578;DHT22;2301;47.354;8.528;2022-10-19T09:50:41;17.80;90.40
4578;DHT22;2301;47.354;8.528;2022-10-19T09:53:16;17.90;90.40
4578;DHT22;2301;47.354;8.528;2022-10-19T09:55:56;17.90;90.40
4578;DHT22;2301;47.354;8.528;2022-10-19T09:58:24;17.90;90.40
4578;DHT22;2301;47.354;8.528;2022-10-19T10:00:52;17.90;90.30
4578;DHT22;2301;47.354;8.528;2022-10-19T10:03:27;17.90;90.70
4578;DHT22;2301;47.354;8.528;2022-10-19T10:05:56;17.90;90.30
4578;DHT22;2301;47.354;8.528;2022-10-19T10:08:26;17.90;90.30
4578;DHT22;2301;47.354;8.528;2022-10-19T10:11:04;17.80;90.20
4578;DHT22;2301;47.354;8.528;2022-10-19T10:13:36;17.90;90.30
4578;DHT22;2301;47.354;8.528;2022-10-19T10:16:05;17.90;90.30
4578;DHT22;2301;47.354;8.528;2022-10-19T10:18:37;17.90;
4578;DHT22;2301;47.354;8.528;2022-10-19T10:21:13;17.90;90.20
4578;DHT22;2301;47.354;8.528;2022-10-19T10:23:40;18.00;90.10
4578;DHT22;2301;47.354;8.528;2022-10-19T10:26:16;18.00;90.10
4578;DHT22;2301;47.354;8.528;2022-10-19T10:28:48;18.00;90.10
4578;DHT22;2301;47.354;8.528;2022-10-19T10:31:19;18.10;90.40
4578;DHT22;2301;47.354;8.528;2022-10-19T10:33:54;18.20;90.20
4578;DHT22;2301;47.354;8.528;2022-10-19T10:36:24;18.30;90.00
4578;DHT22;2301;47.354;8.528;2022-10-19T10:38:53;18.30;90.00
4578;DHT22;2301;47.354;8.528;2022-10-19T10:41:23;18.40;90.00
4578;DHT22;2301;47.354;8.528;2022-10-19T10:43:55;18.40;89.80
4578;DHT22;2301;47.354;8.528;2022-10-19T10:46:25;18.40;89.40
4578;DHT22;2301;47.354;8.528;2022-10-19T10:48:56;18.40;89.40
4578;DHT22;2301;47.354;8.528;2022-10-19T10:51:30;18.40;89.40
4578;DHT22;2301;47.354;8.528;2022-10-19T10:54:13;18.40;89.20
4578;DHT22;2301;47.354;8.528;2022-10-19T10:56:42;18.50;89.40
4578;DHT22;2301;47.354;8.528;2022-10-19T10:59:14;18.40;89.20
4578;DHT22;2301;47.354;8.528;2022-10-19T11:01:50;18.50;89.40
4578;DHT22;2301;47.354;8.528;2022-10-19T11:04:22;18.50;89.30
4578;DHT22;2301;47.354;8.528;2022-10-19T11:06:54;18.50;89.20
4578;DHT22;2301;47.354;8.528;2022-10-19T11:09:27;18.60;89.20
4578;DHT22;2301;47.354;8.528;2022-10-19T11:11:56;18.60;89.00
4578;DHT22;2301;47.354;8.528;2022-10-19T11:14:29;18.60;88.60
4578;DHT22;2301;47.354;8.528;2022-10-19T11:17:04;18.70;88.50
4578;DHT22;2301;47.354;8.528;2022-10-19T11:19:35;18.80;88.50
4578;DHT22;2301;47.354;8.528;2022-10-19T11:22:13;19.00;88.60
4578;DHT22;2301;47.354;8.528;2022-10-19T11:24:52;19.20;88.80
4578;DHT22;2301;47.354;8.528;2022-10-19T11:27:32;19.30;88.10
4578;DHT22;2301;47.354;8.528;2022-10-19T11:30:14;19.40;87.40
4578;DHT22;2301;47.354;8.528;2022-10-19T11:32:51;19.50;87.10
4578;DHT22;2301;47.354;8.528;2022-10-19T11:35:33;19.50;87.60
4578;DHT22;2301;47.354;8.528;2022-10-19T11:38:12;19.50;86.60
4578;DHT22;2301;47.354;8.528;2022-10-19T11:40:46;19.60;86.70
4578;DHT22;2301;47.354;8.528;2022-10-19T11:43:26;19.60;86.50
4578;DHT22;2301;47.354;8.528;2022-10-19T11:46:01;19.60;86.40
4578;DHT22;2301;47.354;8.528;2022-10-19T11:48:51;19.60;86.30
4578;DHT22;2301;47.354;8.528;2022-10-19T11:51:28;19.60;86.30
4578;DHT22;2301;47.354;8.528;2022-10-19T11:54:14;19.60;85.90
4578;DHT22;2301;47.354;8.528;2022-10-19T11:56:48;19.60;85.90
4578;DHT22;2301;47.354;8.528;2022-10-19T11:59:22;19.60;85.70
4578;DHT22;2301;47.354;8.528;2022-10-19T12:01:58;19.70;85.60
4578;DHT22;2301;47.354;8.528;2022-10-19T12:07:31;19.70;85.20
4578;DHT22;2301;47.354;8.528;2022-10-19T12:10:11;19.70;85.00
4578;DHT22;2301;47.354;8.528;2022-10-19T12:12:43;19.70;84.90
4578;DHT22;2301;47.354;8.528;2022-10-19T12:15:19;19.80;84.70
4578;DHT22;2301;47.354;8.528;2022-10-19T12:17:50;19.70;84.30
4578;DHT22;2301;47.354;8.528;2022-10-19T12:20:23;19.80;84.50
4578;DHT22;2301;47.354;8.528;2022-10-19T12:22:53;19.90;85.10
4578;DHT22;2301;47.354;8.528;2022-10-19T12:25:21;20.00;84.60
4578;DHT22;2301;47.354;8.528;2022-10-19T12:27:49;20.10;84.40
4578;DHT22;2301;47.354;8.528;2022-10-19T12:30:18;20.20;84.00
4578;DHT22;2301;47.354;8.528;2022-10-19T12:33:00;20.30;83.80
4578;DHT22;2301;47.354;8.528;2022-10-19T12:35:51;20.40;83.10
4578;DHT22;2301;47.354;8.528;2022-10-19T12:38:27;20.40;82.80
4578;DHT22;2301;47.354;8.528;2022-10-19T12:41:01;20.50;82.60
4578;DHT22;2301;47.354;8.528;2022-10-19T12:43:33;20.60;82.70
4578;DHT22;2301;47.354;8.528;2022-10-19T12:46:09;20.70;82.70
4578;DHT22;2301;47.354;8.528;2022-10-19T12:48:40;20.90;82.20
4578;DHT22;2301;47.354;8.528;2022-10-19T12:51:12;21.00;82.00
4578;DHT22;2301;47.354;8.528;2022-10-19T12:53:43;21.00;80.90
4578;DHT22;2301;47.354;8.528;2022-10-19T12:56:17;20.90;80.40
4578;DHT22;2301;47.354;8.528;2022-10-19T12:58:49;20.90;80.50
4578;DHT22;2301;47.354;8.528;2022-10-19T13:01:19;21.00;80.50
4578;DHT22;2301;47.354;8.528;2022-10-19T13:03:50;21.00;80.30
4578;DHT22;2301;47.354;8.528;2022-10-19T13:06:29;21.10;80.20
4578;DHT22;2301;47.354;8.528;2022-10-19T13:09:00;21.20;80.10
4578;DHT22;2301;47.354;8.528;2022-10-19T13:11:28;21.30;80.00
4578;DHT22;2301;47.354;8.528;2022-10-19T13:14:06;21.40;79.60
4578;DHT22;2301;47.354;8.528;2022-10-19T13:16:58;21.50;78.90
4578;DHT22;2301;47.354;8.528;2022-10-19T13:19:25;21.50;78.60
4578;DHT22;2301;47.354;8.528;2022-10-19T13:25:19;21.70;77.60
4578;DHT22;2301;47.354;8.528;2022-10-19T13:27:48;21.70;78.40
4578;DHT22;2301;47.354;8.528;2022-10-19T13:33:44;21.80;77.80
4578;DHT22;2301;47.354;8.528;2022-10-19T13:36:12;21.90;77.30
4578;DHT22;2301;47.354;8.528;2022-10-19T13:38:40;21.90;77.20
4578;DHT22;2301;47.354;8.528;2022-10-19T13:41:12;22.00;77.30
4578;DHT22;2301;47.354;8.528;2022-10-19T13:43:55;22.10;77.10
4578;DHT22;2301;47.354;8.528;2022-10-19T13:46:35;22.10;76.90
4578;DHT22;2301;47.354;8.528;2022-10-19T13:52:55;22.10;77.00
4578;DHT22;2301;47.354;8.528;2022-10-19T13:55:47;22.10;76.50
4578;DHT22;2301;47.354;8.528;2022-10-19T13:58:40;22.10;76.60
4578;DHT22;2301;47.354;8.528;2022-10-19T14:01:19;22.10;76.10
4578;DHT22;2301;47.354;8.528;2022-10-19T14:04:01;22.10;76.30
4578;DHT22;2301;47.354;8.528;2022-10-19T14:06:34;22.10;76.30
4578;DHT22;2301;47.354;8.528;2022-10-19T14:09:17;22.20;76.50
4578;DHT22;2301;47.354;8.528;2022-10-19T14:11:48;22.30;76.20
4578;DHT22;2301;47.354;8.528;2022-10-19T14:14:19;22.30;75.90
4578;DHT22;2301;47.354;8.528;2022-10-19T14:16:51;22.30;75.30
4578;DHT22;2301;47.354;8.528;2022-10-19T14:19:24;22.30;75.50
4578;DHT22;2301;47.354;8.528;2022-10-19T14:21:57;22.30;75.60
4578;DHT22;2301;47.354;8.528;2022-10-19T14:24:30;22.30;75.70
4578;DHT22;2301;47.354;8.528;2022-10-19T14:26:59;22.20;75.70
4578;DHT22;2301;47.354;8.528;2022-10-19T14:29:29;22.20;76.10
4578;DHT22;2301;47.354;8.528;2022-10-19T14:31:58;22.20;76.20
4578;DHT22;2301;47.354;8.528;2022-10-19T14:34:25;22.20;76.20
4578;DHT22;2301;47.354;8.528;2022-10-19T14:36:52;22.10;76.10
4578;DHT22;2301;47.354;8.528;2022-10-19T14:39:29;22.10;76.30
4578;DHT22;2301;47.354;8.528;2022-10-19T14:42:02;22.00;76.40
4578;DHT22;2301;47.354;8.528;2022-10-19T14:44:39;21.90;76.70
4578;DHT22;2301;47.354;8.528;2022-10-19T14:47:18;21.90;77.00
4578;DHT22;2301;47.354;8.528;2022-10-19T14:49:45;21.80;76.70
4578;DHT22;2301;47.354;8.528;2022-10-19T14:52:15;21.90;77.10
4578;DHT22;2301;47.354;8.528;2022-10-19T14:54:46;21.90;77.20
4578;DHT22;2301;47.354;8.528;2022-10-19T14:57:19;21.90;77.30
4578;DHT22;2301;47.354;8.528;2022-10-19T14:59:53;21.90;77.20
4578;DHT22;2301;47.354;8.528;2022-10-19T15:02:23;21.90;77.20
4578;DHT22;2301;47.354;8.528;2022-10-19T15:04:54;21.80;77.30
4578;DHT22;2301;47.354;8.528;2022-10-19T15:07:24;21.80;77.30
4578;DHT22;2301;47.354;8.528;2022-10-19T15:09:54;21.80;77.40
4578;DHT22;2301;47.354;8.528;2022-10-19T15:12:26;21.80;77.40
4578;DHT22;2301;47.354;8.528;2022-10-19T15:14:56;21.80;77.60
4578;DHT22;2301;47.354;8.528;2022-10-19T15:17:25;21.70;77.60
4578;DHT22;2301;47.354;8.528;2022-10-19T15:19:53;21.70;78.10
4578;DHT22;2301;47.354;8.528;2022-10-19T15:29:20;21.60;78.80
4578;DHT22;2301;47.354;8.528;2022-10-19T15:31:51;21.50;79.10
4578;DHT22;2301;47.354;8.528;2022-10-19T15:34:26;21.40;79.30
4578;DHT22;2301;47.354;8.528;2022-10-19T15:36:57;21.30;79.50
4578;DHT22;2301;47.354;8.528;2022-10-19T15:39:31;21.20;79.70
4578;DHT22;2301;47.354;8.528;2022-10-19T15:42:20;21.20;80.00
4578;DHT22;2301;47.354;8.528;2022-10-19T15:44:48;21.10;80.40
4578;DHT22;2301;47.354;8.528;2022-10-19T15:47:26;21.00;80.60
4578;DHT22;2301;47.354;8.528;2022-10-19T15:49:55;21.00;81.20
4578;DHT22;2301;47.354;8.528;2022-10-19T15:52:24;20.90;81.50
4578;DHT22;2301;47.354;8.528;2022-10-19T15:54:53;20.80;81.70
4578;DHT22;2301;47.354;8.528;2022-10-19T15:57:25;20.80;82.00
4578;DHT22;2301;47.354;8.528;2022-10-19T15:59:53;20.70;82.10
4578;DHT22;2301;47.354;8.528;2022-10-19T16:02:24;20.70;82.40
4578;DHT22;2301;47.354;8.528;2022-10-19T16:04:52;20.60;82.50
4578;DHT22;2301;47.354;8.528;2022-10-19T16:07:24;20.60;82.60
4578;DHT22;2301;47.354;8.528;2022-10-19T16:09:52;20.60;82.80
4578;DHT22;2301;47.354;8.528;2022-10-19T16:12:20;20.50;82.90
4578;DHT22;2301;47.354;8.528;2022-10-19T16:14:47;20.50;83.20
4578;DHT22;2301;47.354;8.528;2022-10-19T16:17:14;20.50;83.30
4578;DHT22;2301;47.354;8.528;2022-10-19T16:19:43;20.40;83.30
4578;DHT22;2301;47.354;8.528;2022-10-19T16:22:11;20.40;83.30
4578;DHT22;2301;47.354;8.528;2022-10-19T16:24:39;20.40;83.40
4578;DHT22;2301;47.354;8.528;2022-10-19T16:27:06;20.30;83.50
4578;DHT22;2301;47.354;8.528;2022-10-19T16:29:33;20.30;83.70
4578;DHT22;2301;47.354;8.528;2022-10-19T16:32:00;20.30;83.80
4578;DHT22;2301;47.354;8.528;2022-10-19T16:34:27;20.30;84.10
4578;DHT22;2301;47.354;8.528;2022-10-19T16:36:56;20.20;84.30
4578;DHT22;2301;47.354;8.528;2022-10-19T16:39:23;20.20;84.40
4578;DHT22;2301;47.354;8.528;2022-10-19T16:41:50;20.20;84.40
4578;DHT22;2301;47.354;8.528;2022-10-19T16:44:17;20.10;84.50
4578;DHT22;2301;47.354;8.528;2022-10-19T16:46:44;20.10;84.60
4578;DHT22;2301;47.354;8.528;2022-10-19T16:49:11;20.10;84.50